createdAt,value
2022-11-21T00:01:27.155Z,100396.34
2022-11-21T00:03:53.714Z,100404.19
2022-11-21T00:06:20.498Z,100418.31
2022-11-21T00:08:47.155Z,100415.38
2022-11-21T00:11:13.786Z,100422.69
2022-11-21T00:13:40.696Z,100420.13
2022-11-21T00:16:09.573Z,100414.81
2022-11-21T00:18:36.736Z,100412.28
2022-11-21T00:21:15.173Z,100414.75
2022-11-21T00:23:42.915Z,100411.59
2022-11-21T00:26:11.521Z,100419.22
2022-11-21T00:28:38.053Z,100407.88
2022-11-21T00:31:05.384Z,100393.06
2022-11-21T00:33:32.628Z,100374.50
2022-11-21T00:35:59.073Z,100376.53
2022-11-21T00:38:27.288Z,100364.78
2022-11-21T00:40:53.697Z,100362.81
2022-11-21T00:43:20.157Z,100361.19
2022-11-21T00:45:46.593Z,100380.56
2022-11-21T00:48:13.054Z,100389.13
2022-11-21T00:50:39.700Z,100390.81
2022-11-21T00:53:06.150Z,100374.97
2022-11-21T00:55:32.652Z,100368.59
2022-11-21T00:57:59.086Z,100373.84
2022-11-21T01:00:25.505Z,100388.19
2022-11-21T01:02:51.998Z,100402.00
2022-11-21T01:05:18.474Z,100406.44
2022-11-21T01:07:44.933Z,100407.56
2022-11-21T01:10:11.439Z,100407.13
2022-11-21T01:12:37.836Z,100399.28
2022-11-21T01:15:04.619Z,100398.88
2022-11-21T01:17:32.841Z,100401.25
2022-11-21T01:19:59.657Z,100401.09
2022-11-21T01:22:26.236Z,100404.47
2022-11-21T01:24:52.632Z,100408.72
2022-11-21T01:27:19.035Z,100401.25
2022-11-21T01:29:45.469Z,100401.75
2022-11-21T01:32:11.876Z,100392.25
2022-11-21T01:34:38.294Z,100391.03
2022-11-21T01:37:04.716Z,100391.03
2022-11-21T01:39:31.121Z,100383.59
2022-11-21T01:41:57.593Z,100381.25
2022-11-21T01:44:26.960Z,100378.38
2022-11-21T01:46:53.956Z,100381.28
2022-11-21T01:49:25.478Z,100380.19
2022-11-21T01:52:06.774Z,100374.97
2022-11-21T01:54:53.895Z,100383.50
2022-11-21T01:57:23.297Z,100382.03
2022-11-21T01:59:56.367Z,100383.16
2022-11-21T02:02:27.773Z,100377.72
2022-11-21T02:04:55.797Z,100377.72
2022-11-21T02:07:24.544Z,100374.44
2022-11-21T02:09:54.751Z,100370.25
2022-11-21T02:12:26.998Z,100370.50
2022-11-21T02:14:54.729Z,100381.09
2022-11-21T02:17:21.221Z,100372.97
2022-11-21T02:19:50.491Z,100361.19
2022-11-21T02:22:23.410Z,100362.56
2022-11-21T02:25:14.633Z,100358.59
2022-11-21T02:27:41.425Z,100359.09
2022-11-21T02:30:09.973Z,100355.31
2022-11-21T02:32:47.711Z,100359.72
2022-11-21T02:35:16.513Z,100353.19
2022-11-21T02:37:46.029Z,100340.34
2022-11-21T02:40:20.862Z,100345.75
2022-11-21T02:43:01.058Z,100353.72
2022-11-21T02:45:32.060Z,100351.66
2022-11-21T02:48:03.694Z,100344.81
2022-11-21T02:50:36.461Z,100353.25
2022-11-21T02:53:04.864Z,100358.03
2022-11-21T02:55:31.364Z,100345.06
2022-11-21T02:58:01.727Z,100347.25
2022-11-21T03:00:32.325Z,100360.19
2022-11-21T03:02:58.837Z,100354.88
2022-11-21T03:05:25.397Z,100351.41
2022-11-21T03:07:51.867Z,100362.41
2022-11-21T03:10:18.424Z,100359.34
2022-11-21T03:12:44.880Z,100363.16
2022-11-21T03:15:14.322Z,100362.84
2022-11-21T03:17:41.429Z,100367.34
2022-11-21T03:20:08.916Z,100363.03
2022-11-21T03:22:35.564Z,100361.22
2022-11-21T03:25:02.029Z,100361.75
2022-11-21T03:27:28.472Z,100364.09
2022-11-21T03:29:54.942Z,100359.34
2022-11-21T03:32:21.348Z,100358.09
2022-11-21T03:34:47.759Z,100348.31
2022-11-21T03:37:14.204Z,100343.22
2022-11-21T03:39:40.625Z,100336.31
2022-11-21T03:42:07.056Z,100331.94
2022-11-21T03:44:33.509Z,100326.47
2022-11-21T03:46:59.951Z,100323.22
2022-11-21T03:49:26.387Z,100338.47
2022-11-21T03:51:52.849Z,100348.97
2022-11-21T03:54:19.271Z,100348.22
2022-11-21T03:56:45.761Z,100342.81
2022-11-21T03:59:12.216Z,100352.63
2022-11-21T04:01:38.731Z,100362.56
2022-11-21T04:04:05.591Z,100353.28
2022-11-21T04:06:32.321Z,100354.09
2022-11-21T04:08:58.787Z,100350.09
2022-11-21T04:11:25.299Z,100339.78
2022-11-21T04:13:52.396Z,100338.88
2022-11-21T04:16:19.340Z,100333.06
2022-11-21T04:18:45.821Z,100328.88
2022-11-21T04:21:12.227Z,100328.78
2022-11-21T04:23:38.693Z,100328.44
2022-11-21T04:26:05.124Z,100335.88
2022-11-21T04:28:31.758Z,100336.66
2022-11-21T04:31:10.823Z,100334.00
2022-11-21T04:33:39.069Z,100333.41
2022-11-21T04:36:09.156Z,100331.44
2022-11-21T04:38:36.243Z,100323.06
2022-11-21T04:41:02.716Z,100321.56
2022-11-21T04:43:29.209Z,100319.59
2022-11-21T04:45:55.623Z,100328.53
2022-11-21T04:48:23.081Z,100323.50
2022-11-21T04:50:49.498Z,100326.09
2022-11-21T04:53:15.935Z,100321.00
2022-11-21T04:55:42.392Z,100314.44
2022-11-21T04:58:08.920Z,100311.59
2022-11-21T05:00:35.462Z,100306.41
2022-11-21T05:03:04.169Z,100299.09
2022-11-21T05:05:30.679Z,100304.91
2022-11-21T05:07:57.390Z,100305.06
2022-11-21T05:10:23.933Z,100303.25
2022-11-21T05:13:18.536Z,100289.84
2022-11-21T05:15:45.766Z,100287.31
2022-11-21T05:18:12.403Z,100292.00
2022-11-21T05:20:38.899Z,100285.81
2022-11-21T05:23:05.338Z,100293.44
2022-11-21T05:25:31.857Z,100300.72
2022-11-21T05:27:58.533Z,100290.00
2022-11-21T05:30:25.119Z,100282.03
2022-11-21T05:32:51.678Z,100270.59
2022-11-21T05:35:18.090Z,100263.19
2022-11-21T05:37:44.513Z,100270.47
2022-11-21T05:40:11.395Z,100271.69
2022-11-21T05:43:02.220Z,100267.56
2022-11-21T05:45:28.641Z,100265.00
2022-11-21T05:47:55.045Z,100278.91
2022-11-21T05:50:21.495Z,100286.72
2022-11-21T05:52:47.980Z,100285.63
2022-11-21T05:55:14.607Z,100296.50
2022-11-21T05:57:41.032Z,100311.03
2022-11-21T06:00:08.210Z,100314.84
2022-11-21T06:02:53.229Z,100323.41
2022-11-21T06:05:20.007Z,100316.38
2022-11-21T06:07:46.515Z,100327.25
2022-11-21T06:10:13.000Z,100335.38
2022-11-21T06:12:39.397Z,100346.81
2022-11-21T06:15:06.239Z,100352.59
2022-11-21T06:17:32.705Z,100355.84
2022-11-21T06:19:59.152Z,100355.47
2022-11-21T06:22:25.562Z,100348.03
2022-11-21T06:24:51.992Z,100356.56
2022-11-21T06:27:18.431Z,100350.41
2022-11-21T06:29:44.905Z,100349.31
2022-11-21T06:32:11.609Z,100356.94
2022-11-21T06:34:38.114Z,100351.13
2022-11-21T06:37:04.563Z,100351.13
2022-11-21T06:39:30.981Z,100344.03
2022-11-21T06:41:57.461Z,100335.53
2022-11-21T06:44:23.958Z,100331.75
2022-11-21T06:46:51.625Z,100336.06
2022-11-21T06:49:18.479Z,100337.13
2022-11-21T06:51:44.897Z,100347.47
2022-11-21T06:54:15.237Z,100336.59
2022-11-21T06:56:43.765Z,100343.66
2022-11-21T06:59:11.214Z,100343.66
2022-11-21T07:01:37.915Z,100339.13
2022-11-21T07:04:04.632Z,100348.22
2022-11-21T07:06:31.156Z,100342.38
2022-11-21T07:09:30.947Z,100340.19
2022-11-21T07:11:44.565Z,100341.66
2022-11-21T07:14:11.036Z,100338.91
2022-11-21T07:16:37.862Z,100339.41
2022-11-21T07:19:04.304Z,100334.53
2022-11-21T07:21:30.752Z,100330.31
2022-11-21T07:23:57.158Z,100327.03
2022-11-21T07:26:23.589Z,100324.06
2022-11-21T07:28:50.030Z,100321.25
2022-11-21T07:31:16.611Z,100318.00
2022-11-21T07:33:47.439Z,100311.09
2022-11-21T07:36:14.180Z,100317.44
2022-11-21T07:38:41.435Z,100314.09
2022-11-21T07:41:08.599Z,100305.84
2022-11-21T07:43:35.116Z,100305.06
2022-11-21T07:46:01.598Z,100316.47
2022-11-21T07:48:28.036Z,100326.06
2022-11-21T07:50:54.494Z,100329.47
2022-11-21T07:53:21.024Z,100328.97
2022-11-21T07:55:47.477Z,100330.44
2022-11-21T07:58:16.206Z,100326.97
2022-11-21T08:00:43.278Z,100334.78
2022-11-21T08:03:12.104Z,100337.63
2022-11-21T08:05:40.666Z,100340.25
2022-11-21T08:08:07.583Z,100341.63
2022-11-21T08:10:38.358Z,100343.03
2022-11-21T08:13:04.961Z,100342.63
2022-11-21T08:15:31.413Z,100349.69
2022-11-21T08:17:57.840Z,100353.81
2022-11-21T08:20:24.249Z,100357.38
2022-11-21T08:22:50.745Z,100354.25
2022-11-21T08:25:17.296Z,100338.09
2022-11-21T08:27:43.803Z,100331.13
2022-11-21T08:30:11.730Z,100321.28
2022-11-21T08:32:38.415Z,100324.31
2022-11-21T08:35:05.279Z,100316.03
2022-11-21T08:37:31.757Z,100323.16
2022-11-21T08:40:02.296Z,100311.59
2022-11-21T08:42:28.771Z,100311.91
2022-11-21T08:44:55.206Z,100301.63
2022-11-21T08:47:21.906Z,100295.56
2022-11-21T08:49:48.544Z,100288.56
2022-11-21T08:52:17.241Z,100281.41
2022-11-21T08:54:47.126Z,100278.03
2022-11-21T08:57:13.612Z,100280.63
2022-11-21T08:59:40.108Z,100289.03
2022-11-21T09:02:07.215Z,100282.75
2022-11-21T09:04:33.761Z,100278.00
2022-11-21T09:07:00.775Z,100278.50
2022-11-21T09:09:27.565Z,100267.88
2022-11-21T09:11:54.052Z,100272.69
2022-11-21T09:14:39.417Z,100274.84
2022-11-21T09:17:24.130Z,100264.69
2022-11-21T09:19:50.629Z,100260.84
2022-11-21T09:22:17.169Z,100262.09
2022-11-21T09:24:43.727Z,100258.53
2022-11-21T09:27:10.164Z,100258.22
2022-11-21T09:29:36.575Z,100258.84
2022-11-21T09:32:03.056Z,100257.38
2022-11-21T09:34:31.706Z,100254.09
2022-11-21T09:36:58.373Z,100264.94
2022-11-21T09:39:25.572Z,100268.84
2022-11-21T09:42:10.495Z,100264.94
2022-11-21T09:44:42.995Z,100261.25
2022-11-21T09:47:23.827Z,100262.28
2022-11-21T09:50:04.057Z,100255.69
2022-11-21T09:52:44.511Z,100255.69
2022-11-21T09:55:18.325Z,100248.31
2022-11-21T09:57:47.689Z,100252.97
2022-11-21T10:00:23.250Z,100244.69
2022-11-21T10:02:51.600Z,100236.69
2022-11-21T10:05:29.263Z,100223.16
2022-11-21T10:08:03.013Z,100218.63
2022-11-21T10:10:29.444Z,100206.69
2022-11-21T10:13:24.131Z,100203.22
2022-11-21T10:16:21.575Z,100199.91
2022-11-21T10:19:07.044Z,100188.75
2022-11-21T10:22:02.326Z,100190.38
2022-11-21T10:24:34.924Z,100179.63
2022-11-21T10:27:11.030Z,100187.44
2022-11-21T10:29:48.252Z,100186.34
2022-11-21T10:32:26.333Z,100190.38
2022-11-21T10:34:57.922Z,100186.06
2022-11-21T10:37:37.451Z,100177.31
2022-11-21T10:40:22.607Z,100182.34
2022-11-21T10:42:58.576Z,100173.50
2022-11-21T10:45:25.189Z,100167.91
2022-11-21T10:47:52.985Z,100163.41
2022-11-21T10:50:31.326Z,100152.53
2022-11-21T10:53:28.308Z,100160.72
2022-11-21T10:56:02.156Z,100152.53
2022-11-21T10:58:41.699Z,100140.53
2022-11-21T11:01:19.791Z,100137.56
2022-11-21T11:04:06.882Z,100135.22
2022-11-21T11:06:33.168Z,100138.56
2022-11-21T11:08:59.653Z,100134.00
2022-11-21T11:11:26.462Z,100138.63
2022-11-21T11:13:57.689Z,100132.69
2022-11-21T11:16:24.708Z,100132.41
2022-11-21T11:18:58.423Z,100127.34
2022-11-21T11:21:26.101Z,100122.09
2022-11-21T11:23:54.958Z,100109.91
2022-11-21T11:26:21.780Z,100106.44
2022-11-21T11:28:48.667Z,100102.06
2022-11-21T11:31:15.622Z,100100.81
2022-11-21T11:33:51.796Z,100102.13
2022-11-21T11:36:36.880Z,100089.03
2022-11-21T11:39:18.025Z,100078.41
2022-11-21T11:42:21.802Z,100068.00
2022-11-21T11:45:16.953Z,100075.06
2022-11-21T11:47:54.641Z,100067.75
2022-11-21T11:50:26.844Z,100055.31
2022-11-21T11:53:22.380Z,100049.38
2022-11-21T11:55:54.426Z,100045.25
2022-11-21T11:58:33.836Z,100036.31
2022-11-21T12:01:06.139Z,100038.09
2022-11-21T12:04:16.187Z,100044.22
2022-11-21T12:07:41.161Z,100035.91
2022-11-21T12:09:34.946Z,100028.28
2022-11-21T12:12:16.217Z,100032.28
2022-11-21T12:15:16.181Z,100018.13
2022-11-21T12:17:47.104Z,100020.06
2022-11-21T12:20:39.945Z,100013.91
2022-11-21T12:23:09.247Z,100017.22
2022-11-21T12:25:47.394Z,100016.44
2022-11-21T12:28:32.650Z,100015.91
2022-11-21T12:31:09.913Z,100011.28
2022-11-21T12:33:47.620Z,100013.72
2022-11-21T12:36:24.337Z,100008.44
2022-11-21T12:39:10.118Z,100003.38
2022-11-21T12:41:57.978Z,99993.91
2022-11-21T12:44:50.302Z,99977.59
2022-11-21T12:47:28.856Z,99974.50
2022-11-21T12:50:37.437Z,99974.50
2022-11-21T12:53:51.613Z,99959.06
2022-11-21T12:56:32.026Z,99948.19
2022-11-21T12:59:00.517Z,99946.91
2022-11-21T13:01:46.075Z,99941.25
2022-11-21T13:04:18.235Z,99941.25
2022-11-21T13:06:48.846Z,99942.16
2022-11-21T13:09:20.388Z,99954.69
2022-11-21T13:11:58.624Z,99946.75
2022-11-21T13:14:31.561Z,99947.28
2022-11-21T13:17:28.086Z,99952.00
2022-11-21T13:20:02.240Z,99941.50
2022-11-21T13:22:37.930Z,99937.91
2022-11-21T13:25:19.251Z,99939.34
2022-11-21T13:27:45.788Z,99923.81
2022-11-21T13:30:12.214Z,99911.09
2022-11-21T13:32:47.164Z,99914.69
2022-11-21T13:35:16.532Z,99910.28
2022-11-21T13:37:52.446Z,99909.28
2022-11-21T13:40:28.012Z,99906.59
2022-11-21T13:45:58.751Z,99896.44
2022-11-21T13:48:37.115Z,99896.56
2022-11-21T13:51:15.718Z,99888.63
2022-11-21T13:54:05.432Z,99900.53
2022-11-21T13:56:44.499Z,99886.16
2022-11-21T13:59:29.337Z,99895.91
2022-11-21T14:02:48.044Z,99897.44
2022-11-21T14:05:37.728Z,99897.44
2022-11-21T14:08:16.879Z,99900.03
2022-11-21T14:10:45.858Z,99897.22
2022-11-21T14:13:23.348Z,99888.50
2022-11-21T14:16:01.527Z,99891.19
2022-11-21T14:18:28.184Z,99888.50
2022-11-21T14:20:58.420Z,99889.03
2022-11-21T14:23:28.286Z,99886.22
2022-11-21T14:26:11.865Z,99888.66
2022-11-21T14:28:38.595Z,99885.88
2022-11-21T14:31:10.404Z,99878.81
2022-11-21T14:33:47.705Z,99869.81
2022-11-21T14:36:18.706Z,99876.50
2022-11-21T14:38:57.778Z,99868.72
2022-11-21T14:41:31.247Z,99863.44
2022-11-21T14:44:03.422Z,99866.00
2022-11-21T14:46:38.319Z,99849.72
2022-11-21T14:49:16.917Z,99854.97
2022-11-21T14:51:45.233Z,99854.84
2022-11-21T14:54:21.783Z,99853.69
2022-11-21T14:56:56.319Z,99851.41
2022-11-21T14:59:26.789Z,99857.34
2022-11-21T15:02:02.806Z,99858.09
2022-11-21T15:04:32.568Z,99847.38
2022-11-21T15:06:59.496Z,99840.19
2022-11-21T15:10:26.117Z,99841.06
2022-11-21T15:12:18.953Z,99836.06
2022-11-21T15:14:59.041Z,99828.25
2022-11-21T15:17:27.038Z,99828.91
2022-11-21T15:20:11.208Z,99834.56
2022-11-21T15:22:41.237Z,99839.47
2022-11-21T15:25:15.596Z,99831.38
2022-11-21T15:27:42.724Z,99821.50
2022-11-21T15:30:09.123Z,99817.94
2022-11-21T15:33:01.498Z,99815.91
2022-11-21T15:35:31.955Z,99816.44
2022-11-21T15:37:58.703Z,99798.09
2022-11-21T15:40:25.300Z,99797.09
2022-11-21T15:42:51.729Z,99795.69
2022-11-21T15:45:26.929Z,99798.91
2022-11-21T15:47:53.700Z,99801.56
2022-11-21T15:50:23.780Z,99795.44
2022-11-21T15:52:51.900Z,99796.72
2022-11-21T15:55:22.030Z,99797.38
2022-11-21T15:57:48.677Z,99806.38
2022-11-21T16:00:15.845Z,99800.81
2022-11-21T16:02:42.271Z,99806.59
2022-11-21T16:05:15.226Z,99808.06
2022-11-21T16:07:42.361Z,99809.88
2022-11-21T16:10:16.526Z,99810.88
2022-11-21T16:12:47.078Z,99811.00
2022-11-21T16:15:14.127Z,99805.75
2022-11-21T16:17:41.590Z,99810.38
2022-11-21T16:20:08.558Z,99815.22
2022-11-21T16:22:35.001Z,99803.56
2022-11-21T16:25:01.519Z,99792.16
2022-11-21T16:27:28.037Z,99791.91
2022-11-21T16:29:54.493Z,99795.50
2022-11-21T16:32:20.925Z,99788.22
2022-11-21T16:34:47.380Z,99790.63
2022-11-21T16:37:14.380Z,99795.53
2022-11-21T16:39:41.839Z,99800.66
2022-11-21T16:42:10.274Z,99821.16
2022-11-21T16:44:36.676Z,99819.34
2022-11-21T16:47:08.018Z,99821.16
2022-11-21T16:49:35.588Z,99807.31
2022-11-21T16:52:02.408Z,99812.41
2022-11-21T16:54:28.846Z,99805.50
2022-11-21T16:56:55.264Z,99807.81
2022-11-21T16:59:21.767Z,99804.34
2022-11-21T17:01:48.223Z,99800.13
2022-11-21T17:04:17.519Z,99805.50
2022-11-21T17:06:44.723Z,99800.63
2022-11-21T17:09:11.457Z,99800.09
2022-11-21T17:11:37.947Z,99798.56
2022-11-21T17:14:06.253Z,99797.03
2022-11-21T17:16:34.470Z,99791.91
2022-11-21T17:19:02.181Z,99798.44
2022-11-21T17:21:30.386Z,99798.28
2022-11-21T17:23:57.351Z,99791.63
2022-11-21T17:26:26.563Z,99783.44
2022-11-21T17:28:55.082Z,99771.53
2022-11-21T17:31:22.656Z,99756.28
2022-11-21T17:33:52.043Z,99761.81
2022-11-21T17:36:24.556Z,99772.03
2022-11-21T17:38:52.115Z,99754.22
2022-11-21T17:41:20.708Z,99740.91
2022-11-21T17:43:48.235Z,99729.41
2022-11-21T17:46:17.371Z,99728.38
2022-11-21T17:48:49.799Z,99721.22
2022-11-21T17:51:25.587Z,99708.91
2022-11-21T17:53:52.767Z,99714.31
2022-11-21T17:56:21.664Z,99732.72
2022-11-21T17:58:48.313Z,99721.09
2022-11-21T18:01:21.936Z,99722.00
2022-11-21T18:03:54.696Z,99717.91
2022-11-21T18:06:21.264Z,99722.28
2022-11-21T18:08:48.528Z,99720.19
2022-11-21T18:11:18.391Z,99714.84
2022-11-21T18:13:45.413Z,99716.50
2022-11-21T18:16:15.264Z,99720.34
2022-11-21T18:18:42.521Z,99729.69
2022-11-21T18:21:20.972Z,99731.47
2022-11-21T18:23:47.600Z,99719.94
2022-11-21T18:26:20.528Z,99720.47
2022-11-21T18:28:57.228Z,99715.47
2022-11-21T18:31:36.047Z,99719.94
2022-11-21T18:34:07.506Z,99713.56
2022-11-21T18:36:33.989Z,99714.69
2022-11-21T18:39:07.313Z,99717.53
2022-11-21T18:41:38.706Z,99718.44
2022-11-21T18:44:06.450Z,99712.53
2022-11-21T18:46:35.829Z,99718.16
2022-11-21T18:49:05.957Z,99721.47
2022-11-21T18:51:34.173Z,99707.78
2022-11-21T18:54:07.337Z,99698.97
2022-11-21T18:56:35.117Z,99701.38
2022-11-21T18:59:03.290Z,99697.16
2022-11-21T19:01:30.537Z,99697.94
2022-11-21T19:03:57.475Z,99689.97
2022-11-21T19:06:25.555Z,99693.47
2022-11-21T19:08:54.159Z,99685.13
2022-11-21T19:11:24.127Z,99687.69
2022-11-21T19:13:51.217Z,99691.38
2022-11-21T19:16:19.831Z,99692.81
2022-11-21T19:19:05.402Z,99689.38
2022-11-21T19:21:38.286Z,99692.91
2022-11-21T19:24:06.790Z,99693.84
2022-11-21T19:26:33.415Z,99692.03
2022-11-21T19:28:59.843Z,99684.50
2022-11-21T19:31:26.311Z,99681.94
2022-11-21T19:33:52.906Z,99682.31
2022-11-21T19:36:21.535Z,99682.19
2022-11-21T19:38:50.964Z,99692.81
2022-11-21T19:41:20.814Z,99687.69
2022-11-21T19:43:49.811Z,99696.41
2022-11-21T19:46:27.894Z,99691.28
2022-11-21T19:48:56.116Z,99696.41
2022-11-21T19:51:25.378Z,99685.41
2022-11-21T19:53:51.831Z,99693.06
2022-11-21T19:56:23.327Z,99684.63
2022-11-21T19:58:50.004Z,99684.09
2022-11-21T20:01:28.277Z,99682.19
2022-11-21T20:03:57.922Z,99686.41
2022-11-21T20:06:26.632Z,99686.66
2022-11-21T20:08:55.672Z,99678.47
2022-11-21T20:11:23.619Z,99672.59
2022-11-21T20:13:51.313Z,99681.03
2022-11-21T20:16:35.120Z,99679.25
2022-11-21T20:19:06.617Z,99672.06
2022-11-21T20:21:33.056Z,99668.47
2022-11-21T20:23:59.559Z,99667.97
2022-11-21T20:26:26.802Z,99661.72
2022-11-21T20:28:54.200Z,99652.13
2022-11-21T20:31:23.130Z,99653.38
2022-11-21T20:33:51.733Z,99636.00
2022-11-21T20:36:23.452Z,99642.38
2022-11-21T20:38:51.060Z,99639.19
2022-11-21T20:41:18.650Z,99630.13
2022-11-21T20:44:26.752Z,99632.16
2022-11-21T20:46:34.249Z,99628.94
2022-11-21T20:49:01.132Z,99630.63
2022-11-21T20:54:14.091Z,99628.31
2022-11-21T20:56:44.200Z,99623.19
2022-11-21T20:59:11.222Z,99612.31
2022-11-21T21:01:37.705Z,99598.63
2022-11-21T21:04:04.392Z,99606.06
2022-11-21T21:06:30.814Z,99604.00
2022-11-21T21:08:57.323Z,99586.50
2022-11-21T21:11:50.404Z,99594.81
2022-11-21T21:14:11.301Z,99587.13
2022-11-21T21:16:37.686Z,99577.91
2022-11-21T21:19:04.317Z,99576.25
2022-11-21T21:21:30.915Z,99570.25
2022-11-21T21:24:02.295Z,99574.19
2022-11-21T21:26:34.501Z,99571.78
2022-11-21T21:29:03.757Z,99573.31
2022-11-21T21:31:30.873Z,99576.63
2022-11-21T21:33:58.418Z,99567.16
2022-11-21T21:36:26.199Z,99552.59
2022-11-21T21:39:00.098Z,99537.88
2022-11-21T21:41:28.899Z,99542.09
2022-11-21T21:43:57.180Z,99541.44
2022-11-21T21:46:27.971Z,99540.31
2022-11-21T21:48:58.117Z,99543.25
2022-11-21T21:51:27.298Z,99535.44
2022-11-21T21:53:55.006Z,99535.69
2022-11-21T21:56:23.825Z,99528.81
2022-11-21T21:58:50.933Z,99517.69
2022-11-21T22:01:20.165Z,99509.22
2022-11-21T22:03:47.823Z,99507.84
2022-11-21T22:06:17.312Z,99514.09
2022-11-21T22:08:45.420Z,99515.50
2022-11-21T22:11:16.877Z,99521.63
2022-11-21T22:13:43.904Z,99519.88
2022-11-21T22:16:11.907Z,99526.25
2022-11-21T22:18:38.848Z,99514.34
2022-11-21T22:21:27.991Z,99515.00
2022-11-21T22:24:24.984Z,99525.22
2022-11-21T22:26:42.680Z,99515.00
2022-11-21T22:29:09.123Z,99514.34
2022-11-21T22:31:35.609Z,99512.28
2022-11-21T22:34:02.123Z,99513.97
2022-11-21T22:36:28.581Z,99511.41
2022-11-21T22:38:56.108Z,99499.66
2022-11-21T22:41:25.090Z,99490.94
2022-11-21T22:43:56.494Z,99495.41
2022-11-21T22:46:24.062Z,99495.31
2022-11-21T22:48:50.888Z,99492.75
2022-11-21T22:51:20.625Z,99470.25
2022-11-21T22:53:48.079Z,99472.91
2022-11-21T22:56:17.812Z,99473.81
2022-11-21T22:58:45.767Z,99470.22
2022-11-21T23:01:14.882Z,99468.97
2022-11-21T23:03:42.500Z,99469.06
2022-11-21T23:06:12.284Z,99464.59
2022-11-21T23:08:39.855Z,99464.97
2022-11-21T23:11:17.916Z,99457.66
2022-11-21T23:13:47.234Z,99450.78
2022-11-21T23:16:14.741Z,99450.25
2022-11-21T23:18:41.591Z,99442.81
2022-11-21T23:21:09.012Z,99424.81
2022-11-21T23:23:36.129Z,99426.72
2022-11-21T23:26:03.313Z,99420.06
2022-11-21T23:28:29.948Z,99415.44
2022-11-21T23:30:56.605Z,99405.75
2022-11-21T23:33:23.327Z,99396.41
2022-11-21T23:35:50.046Z,99388.59
2022-11-21T23:38:17.636Z,99374.03
2022-11-21T23:40:48.783Z,99375.94
2022-11-21T23:43:16.348Z,99370.81
2022-11-21T23:45:43.799Z,99358.41
2022-11-21T23:48:10.211Z,99358.53
2022-11-21T23:50:36.840Z,99347.44
2022-11-21T23:53:03.379Z,99349.63
2022-11-21T23:55:29.816Z,99342.31
2022-11-21T23:57:56.275Z,99343.31
